Alpine Light — V7UJ6 — position and weather

sailwx.info

Track history (hours):
 
Tides and Currents Weather Stations Pressure Air Temp Water Temp Dewpoint Dewpoint Depression Visibility Wind Speed Wind Dir Waves Ship Positions

Alpine Light

Last reported at 2016-Jun-23 09:04 UTC. Time now 2016-Jul-02 03:58 UTC.
Position N 01°16' E 104°12'.
Warning: this ship's position is 8 days out of date.

Length 183 m; draft 9.6 m.

Type: Tanker. MMSI: 538003962.

Date/timePositionNaut miles runAvg speedWind from/ knotsBaromVisibWave heightAir tempDewpointWater temp
2016-Jun-23 09:04N 01°16' E 104°12'510.4
2016-Jun-23 08:33N 01°15' E 104°07'1010.3
2016-Jun-23 07:33N 01°13' E 103°57'16 4.0
2016-Jun-23 03:25N 01°13' E 103°40'2 1.9
2016-Jun-23 02:33N 01°14' E 103°42'0 0.0
2016-Jun-21 23:31N 01°14' E 103°42'3 3.3
2016-Jun-21 22:32N 01°16' E 103°44'5 4.4
2016-Jun-21 21:28N 01°13' E 103°48'0 0.0
2016-Jun-21 20:31N 01°13' E 103°48'0 0.0
2016-Jun-21 19:28N 01°13' E 103°48'0 0.1
2016-Jun-21 18:28N 01°13' E 103°48'0 0.0
2016-Jun-21 17:28N 01°13' E 103°48'0 0.1
2016-Jun-21 15:28N 01°13' E 103°48'0 0.1
2016-Jun-21 14:28N 01°13' E 103°48'0 0.1
2016-Jun-21 13:28N 01°13' E 103°48'0 0.1
2016-Jun-21 12:28N 01°13' E 103°48'0 0.0
2016-Jun-21 11:22N 01°13' E 103°48'0 0.0
2016-Jun-21 10:22N 01°13' E 103°48'0 0.1
2016-Jun-21 09:22N 01°13' E 103°48'0 0.1
2016-Jun-21 08:28N 01°13' E 103°48'0 0.1
2016-Jun-21 07:16N 01°13' E 103°48'0 0.0
2016-Jun-21 04:28N 01°13' E 103°48'0 0.1
2016-Jun-21 03:28N 01°13' E 103°48'0 0.1
2016-Jun-21 02:22N 01°13' E 103°48'0 0.0
2016-Jun-21 01:28N 01°13' E 103°48'0 0.0
2016-Jun-21 00:28N 01°13' E 103°48'0 0.1
2016-Jun-20 23:28N 01°13' E 103°48'0 0.0
2016-Jun-20 22:28N 01°13' E 103°48'0 0.0
2016-Jun-20 21:16N 01°13' E 103°48'0 0.0
2016-Jun-20 20:22N 01°13' E 103°48'0 0.1
2016-Jun-20 19:25N 01°13' E 103°48'0 0.0
2016-Jun-20 18:28N 01°13' E 103°48'0 0.0
2016-Jun-20 17:31N 01°13' E 103°48'0 0.1
2016-Jun-20 16:22N 01°13' E 103°48'0 0.0
2016-Jun-20 15:28N 01°13' E 103°48'0 0.2
2016-Jun-20 14:31N 01°13' E 103°48'0 0.2
2016-Jun-20 13:31N 01°13' E 103°48'0 0.1
2016-Jun-20 12:22N 01°13' E 103°48'0 0.1
2016-Jun-20 11:31N 01°13' E 103°48'0 0.1
2016-Jun-20 10:28N 01°13' E 103°48'0 0.1
2016-Jun-20 09:28N 01°13' E 103°48'0 0.1
2016-Jun-20 08:28N 01°13' E 103°48'0 0.0
2016-Jun-20 07:33N 01°13' E 103°48'2 2.0
2016-Jun-20 06:33N 01°13' E 103°50'8 7.6
2016-Jun-20 05:33N 01°15' E 103°58'4 4.4
2016-Jun-20 04:33N 01°16' E 104°02'  
Track history (hours):
 
Tides and Currents Weather Stations Pressure Air Temp Water Temp Dewpoint Dewpoint Depression Visibility Wind Speed Wind Dir Waves Ship Positions

Alpine Light

Last reported at 2016-Jun-23 09:04 UTC. Time now 2016-Jul-02 03:58 UTC.
Position N 01°16' E 104°12'.
Warning: this ship's position is 8 days out of date.

Length 183 m; draft 9.6 m.

Type: Tanker. MMSI: 538003962.

Date/timePositionNaut miles runAvg speedWind from/ knotsBaromVisibWave heightAir tempDewpointWater temp
2016-Jun-23 09:04N 01°16' E 104°12'510.4
2016-Jun-23 08:33N 01°15' E 104°07'1010.3
2016-Jun-23 07:33N 01°13' E 103°57'16 4.0
2016-Jun-23 03:25N 01°13' E 103°40'2 1.9
2016-Jun-23 02:33N 01°14' E 103°42'0 0.0
2016-Jun-21 23:31N 01°14' E 103°42'3 3.3
2016-Jun-21 22:32N 01°16' E 103°44'5 4.4
2016-Jun-21 21:28N 01°13' E 103°48'0 0.0
2016-Jun-21 20:31N 01°13' E 103°48'0 0.0
2016-Jun-21 19:28N 01°13' E 103°48'0 0.1
2016-Jun-21 18:28N 01°13' E 103°48'0 0.0
2016-Jun-21 17:28N 01°13' E 103°48'0 0.1
2016-Jun-21 15:28N 01°13' E 103°48'0 0.1
2016-Jun-21 14:28N 01°13' E 103°48'0 0.1
2016-Jun-21 13:28N 01°13' E 103°48'0 0.1
2016-Jun-21 12:28N 01°13' E 103°48'0 0.0
2016-Jun-21 11:22N 01°13' E 103°48'0 0.0
2016-Jun-21 10:22N 01°13' E 103°48'0 0.1
2016-Jun-21 09:22N 01°13' E 103°48'0 0.1
2016-Jun-21 08:28N 01°13' E 103°48'0 0.1
2016-Jun-21 07:16N 01°13' E 103°48'0 0.0
2016-Jun-21 04:28N 01°13' E 103°48'0 0.1
2016-Jun-21 03:28N 01°13' E 103°48'0 0.1
2016-Jun-21 02:22N 01°13' E 103°48'0 0.0
2016-Jun-21 01:28N 01°13' E 103°48'0 0.0
2016-Jun-21 00:28N 01°13' E 103°48'0 0.1
2016-Jun-20 23:28N 01°13' E 103°48'0 0.0
2016-Jun-20 22:28N 01°13' E 103°48'0 0.0
2016-Jun-20 21:16N 01°13' E 103°48'0 0.0
2016-Jun-20 20:22N 01°13' E 103°48'0 0.1
2016-Jun-20 19:25N 01°13' E 103°48'0 0.0
2016-Jun-20 18:28N 01°13' E 103°48'0 0.0
2016-Jun-20 17:31N 01°13' E 103°48'0 0.1
2016-Jun-20 16:22N 01°13' E 103°48'0 0.0
2016-Jun-20 15:28N 01°13' E 103°48'0 0.2
2016-Jun-20 14:31N 01°13' E 103°48'0 0.2
2016-Jun-20 13:31N 01°13' E 103°48'0 0.1
2016-Jun-20 12:22N 01°13' E 103°48'0 0.1
2016-Jun-20 11:31N 01°13' E 103°48'0 0.1
2016-Jun-20 10:28N 01°13' E 103°48'0 0.1
2016-Jun-20 09:28N 01°13' E 103°48'0 0.1
2016-Jun-20 08:28N 01°13' E 103°48'0 0.0
2016-Jun-20 07:33N 01°13' E 103°48'2 2.0
2016-Jun-20 06:33N 01°13' E 103°50'8 7.6
2016-Jun-20 05:33N 01°15' E 103°58'4 4.4
2016-Jun-20 04:33N 01°16' E 104°02'  

Dump ship's entire track history